sensor_id;sensor_type;location;lat;lon;timestamp;P1;durP1;ratioP1;P2;durP2;ratioP2
45887;SDS011;31595;51.418;7.572;2022-11-11T00:01:09;8.52;;;3.78;;
45887;SDS011;31595;51.418;7.572;2022-11-11T00:03:38;6.68;;;3.00;;
45887;SDS011;31595;51.418;7.572;2022-11-11T00:06:08;5.20;;;3.40;;
45887;SDS011;31595;51.418;7.572;2022-11-11T00:08:39;6.68;;;3.28;;
45887;SDS011;31595;51.418;7.572;2022-11-11T00:11:07;5.00;;;3.58;;
45887;SDS011;31595;51.418;7.572;2022-11-11T00:13:36;5.13;;;3.25;;
45887;SDS011;31595;51.418;7.572;2022-11-11T00:16:04;4.78;;;2.85;;
45887;SDS011;31595;51.418;7.572;2022-11-11T00:18:47;4.93;;;2.95;;
45887;SDS011;31595;51.418;7.572;2022-11-11T00:21:32;5.90;;;3.40;;
45887;SDS011;31595;51.418;7.572;2022-11-11T00:24:22;5.93;;;3.03;;
45887;SDS011;31595;51.418;7.572;2022-11-11T00:27:08;4.57;;;3.03;;
45887;SDS011;31595;51.418;7.572;2022-11-11T00:29:40;5.10;;;3.17;;
45887;SDS011;31595;51.418;7.572;2022-11-11T00:32:11;4.30;;;2.85;;
45887;SDS011;31595;51.418;7.572;2022-11-11T00:34:53;5.35;;;3.10;;
45887;SDS011;31595;51.418;7.572;2022-11-11T00:37:39;5.20;;;3.05;;
45887;SDS011;31595;51.418;7.572;2022-11-11T00:40:09;4.22;;;2.97;;
45887;SDS011;31595;51.418;7.572;2022-11-11T00:42:52;5.32;;;3.08;;
45887;SDS011;31595;51.418;7.572;2022-11-11T00:45:19;6.85;;;3.95;;
45887;SDS011;31595;51.418;7.572;2022-11-11T00:47:46;5.55;;;3.10;;
45887;SDS011;31595;51.418;7.572;2022-11-11T00:50:31;7.05;;;3.60;;
45887;SDS011;31595;51.418;7.572;2022-11-11T00:53:16;8.25;;;3.45;;
45887;SDS011;31595;51.418;7.572;2022-11-11T00:55:46;6.32;;;3.60;;
45887;SDS011;31595;51.418;7.572;2022-11-11T00:58:17;5.28;;;3.65;;
45887;SDS011;31595;51.418;7.572;2022-11-11T01:00:44;6.37;;;3.50;;
45887;SDS011;31595;51.418;7.572;2022-11-11T01:05:42;7.38;;;3.70;;
45887;SDS011;31595;51.418;7.572;2022-11-11T01:08:09;6.72;;;3.70;;
45887;SDS011;31595;51.418;7.572;2022-11-11T01:10:36;8.55;;;3.67;;
45887;SDS011;31595;51.418;7.572;2022-11-11T01:13:06;5.60;;;3.25;;
45887;SDS011;31595;51.418;7.572;2022-11-11T01:15:44;5.88;;;3.42;;
45887;SDS011;31595;51.418;7.572;2022-11-11T01:18:14;6.38;;;3.40;;
45887;SDS011;31595;51.418;7.572;2022-11-11T01:20:43;8.05;;;3.92;;
45887;SDS011;31595;51.418;7.572;2022-11-11T01:23:12;7.60;;;3.70;;
45887;SDS011;31595;51.418;7.572;2022-11-11T01:25:40;6.80;;;3.28;;
45887;SDS011;31595;51.418;7.572;2022-11-11T01:28:09;6.30;;;3.22;;
45887;SDS011;31595;51.418;7.572;2022-11-11T01:30:37;5.03;;;3.42;;
45887;SDS011;31595;51.418;7.572;2022-11-11T01:33:04;4.97;;;3.42;;
45887;SDS011;31595;51.418;7.572;2022-11-11T01:35:31;6.88;;;3.33;;
45887;SDS011;31595;51.418;7.572;2022-11-11T01:38:03;5.68;;;3.38;;
45887;SDS011;31595;51.418;7.572;2022-11-11T01:40:35;6.53;;;2.78;;
45887;SDS011;31595;51.418;7.572;2022-11-11T01:43:21;7.82;;;3.35;;
45887;SDS011;31595;51.418;7.572;2022-11-11T01:45:50;4.25;;;3.22;;
45887;SDS011;31595;51.418;7.572;2022-11-11T01:48:22;6.68;;;3.20;;
45887;SDS011;31595;51.418;7.572;2022-11-11T01:51:12;5.53;;;2.90;;
45887;SDS011;31595;51.418;7.572;2022-11-11T01:53:46;7.13;;;3.42;;
45887;SDS011;31595;51.418;7.572;2022-11-11T01:56:17;5.38;;;3.20;;
45887;SDS011;31595;51.418;7.572;2022-11-11T01:58:46;5.15;;;3.10;;
45887;SDS011;31595;51.418;7.572;2022-11-11T02:01:15;6.70;;;3.10;;
45887;SDS011;31595;51.418;7.572;2022-11-11T02:03:43;4.90;;;3.47;;
45887;SDS011;31595;51.418;7.572;2022-11-11T02:06:34;5.53;;;3.00;;
45887;SDS011;31595;51.418;7.572;2022-11-11T02:09:01;10.38;;;3.58;;
45887;SDS011;31595;51.418;7.572;2022-11-11T02:11:29;4.65;;;2.70;;
45887;SDS011;31595;51.418;7.572;2022-11-11T02:14:18;6.55;;;3.20;;
45887;SDS011;31595;51.418;7.572;2022-11-11T02:17:05;6.82;;;3.72;;
45887;SDS011;31595;51.418;7.572;2022-11-11T02:19:37;6.93;;;3.45;;
45887;SDS011;31595;51.418;7.572;2022-11-11T02:22:12;7.97;;;3.33;;
45887;SDS011;31595;51.418;7.572;2022-11-11T02:24:47;7.60;;;3.15;;
45887;SDS011;31595;51.418;7.572;2022-11-11T02:27:16;6.82;;;3.00;;
45887;SDS011;31595;51.418;7.572;2022-11-11T02:29:45;6.20;;;3.05;;
45887;SDS011;31595;51.418;7.572;2022-11-11T02:32:15;6.90;;;3.17;;
45887;SDS011;31595;51.418;7.572;2022-11-11T02:34:42;7.30;;;3.05;;
45887;SDS011;31595;51.418;7.572;2022-11-11T02:37:10;5.28;;;2.60;;
45887;SDS011;31595;51.418;7.572;2022-11-11T02:39:39;5.55;;;2.85;;
45887;SDS011;31595;51.418;7.572;2022-11-11T02:42:12;4.57;;;2.90;;
45887;SDS011;31595;51.418;7.572;2022-11-11T02:44:44;5.47;;;2.50;;
45887;SDS011;31595;51.418;7.572;2022-11-11T02:47:12;5.15;;;3.05;;
45887;SDS011;31595;51.418;7.572;2022-11-11T02:49:40;6.38;;;3.15;;
45887;SDS011;31595;51.418;7.572;2022-11-11T02:52:08;4.35;;;2.55;;
45887;SDS011;31595;51.418;7.572;2022-11-11T02:54:35;6.40;;;2.53;;
45887;SDS011;31595;51.418;7.572;2022-11-11T02:57:04;5.85;;;2.80;;
45887;SDS011;31595;51.418;7.572;2022-11-11T02:59:37;6.55;;;3.00;;
45887;SDS011;31595;51.418;7.572;2022-11-11T03:02:06;5.63;;;2.70;;
45887;SDS011;31595;51.418;7.572;2022-11-11T03:04:35;4.47;;;2.85;;
45887;SDS011;31595;51.418;7.572;2022-11-11T03:07:04;5.85;;;2.92;;
45887;SDS011;31595;51.418;7.572;2022-11-11T03:09:33;7.53;;;3.20;;
45887;SDS011;31595;51.418;7.572;2022-11-11T03:12:01;5.13;;;3.00;;
45887;SDS011;31595;51.418;7.572;2022-11-11T03:14:28;5.97;;;2.90;;
45887;SDS011;31595;51.418;7.572;2022-11-11T03:16:57;7.97;;;3.60;;
45887;SDS011;31595;51.418;7.572;2022-11-11T03:19:41;7.63;;;3.30;;
45887;SDS011;31595;51.418;7.572;2022-11-11T03:22:09;4.25;;;2.90;;
45887;SDS011;31595;51.418;7.572;2022-11-11T03:24:35;3.97;;;2.88;;
45887;SDS011;31595;51.418;7.572;2022-11-11T03:27:21;9.45;;;2.95;;
45887;SDS011;31595;51.418;7.572;2022-11-11T03:29:48;6.40;;;3.20;;
45887;SDS011;31595;51.418;7.572;2022-11-11T03:32:17;5.80;;;2.85;;
45887;SDS011;31595;51.418;7.572;2022-11-11T03:34:45;4.90;;;3.08;;
45887;SDS011;31595;51.418;7.572;2022-11-11T03:37:15;5.32;;;2.97;;
45887;SDS011;31595;51.418;7.572;2022-11-11T03:40:00;4.65;;;2.83;;
45887;SDS011;31595;51.418;7.572;2022-11-11T03:42:30;5.00;;;2.80;;
45887;SDS011;31595;51.418;7.572;2022-11-11T03:44:57;4.80;;;2.67;;
45887;SDS011;31595;51.418;7.572;2022-11-11T03:47:29;5.88;;;2.78;;
45887;SDS011;31595;51.418;7.572;2022-11-11T03:49:56;4.75;;;2.95;;
45887;SDS011;31595;51.418;7.572;2022-11-11T03:52:24;4.75;;;2.55;;
45887;SDS011;31595;51.418;7.572;2022-11-11T03:54:51;5.40;;;2.58;;
45887;SDS011;31595;51.418;7.572;2022-11-11T03:57:21;7.18;;;2.80;;
45887;SDS011;31595;51.418;7.572;2022-11-11T03:59:58;5.55;;;3.00;;
45887;SDS011;31595;51.418;7.572;2022-11-11T04:02:25;5.40;;;3.10;;
45887;SDS011;31595;51.418;7.572;2022-11-11T04:05:11;6.60;;;3.00;;
45887;SDS011;31595;51.418;7.572;2022-11-11T04:08:10;6.70;;;3.25;;
45887;SDS011;31595;51.418;7.572;2022-11-11T04:10:58;5.75;;;2.85;;
45887;SDS011;31595;51.418;7.572;2022-11-11T04:13:32;5.47;;;3.03;;
45887;SDS011;31595;51.418;7.572;2022-11-11T04:16:17;3.92;;;2.75;;
45887;SDS011;31595;51.418;7.572;2022-11-11T04:18:44;5.07;;;2.38;;
45887;SDS011;31595;51.418;7.572;2022-11-11T04:21:33;5.82;;;2.58;;
45887;SDS011;31595;51.418;7.572;2022-11-11T04:24:12;4.25;;;2.25;;
45887;SDS011;31595;51.418;7.572;2022-11-11T04:26:58;5.85;;;2.60;;
45887;SDS011;31595;51.418;7.572;2022-11-11T04:29:28;4.97;;;2.33;;
45887;SDS011;31595;51.418;7.572;2022-11-11T04:31:55;4.47;;;2.53;;
45887;SDS011;31595;51.418;7.572;2022-11-11T04:34:41;5.50;;;2.63;;
45887;SDS011;31595;51.418;7.572;2022-11-11T04:37:11;6.15;;;2.70;;
45887;SDS011;31595;51.418;7.572;2022-11-11T04:39:40;4.50;;;2.22;;
45887;SDS011;31595;51.418;7.572;2022-11-11T04:42:24;5.47;;;2.47;;
45887;SDS011;31595;51.418;7.572;2022-11-11T04:44:52;5.97;;;2.97;;
45887;SDS011;31595;51.418;7.572;2022-11-11T04:47:37;5.72;;;3.00;;
45887;SDS011;31595;51.418;7.572;2022-11-11T04:50:18;4.70;;;2.85;;
45887;SDS011;31595;51.418;7.572;2022-11-11T04:52:46;5.32;;;2.97;;
45887;SDS011;31595;51.418;7.572;2022-11-11T04:55:14;6.18;;;2.70;;
45887;SDS011;31595;51.418;7.572;2022-11-11T04:57:59;4.45;;;2.53;;
45887;SDS011;31595;51.418;7.572;2022-11-11T05:00:26;4.13;;;2.50;;
45887;SDS011;31595;51.418;7.572;2022-11-11T05:02:54;6.53;;;2.88;;
45887;SDS011;31595;51.418;7.572;2022-11-11T05:05:39;4.53;;;2.70;;
45887;SDS011;31595;51.418;7.572;2022-11-11T05:08:26;4.47;;;2.97;;
45887;SDS011;31595;51.418;7.572;2022-11-11T05:11:11;5.10;;;2.85;;
45887;SDS011;31595;51.418;7.572;2022-11-11T05:13:41;7.25;;;3.17;;
45887;SDS011;31595;51.418;7.572;2022-11-11T05:16:26;6.03;;;2.65;;
45887;SDS011;31595;51.418;7.572;2022-11-11T05:19:13;3.40;;;2.58;;
45887;SDS011;31595;51.418;7.572;2022-11-11T05:22:00;5.85;;;2.78;;
45887;SDS011;31595;51.418;7.572;2022-11-11T05:24:34;4.43;;;3.00;;
45887;SDS011;31595;51.418;7.572;2022-11-11T05:27:19;5.72;;;3.38;;
45887;SDS011;31595;51.418;7.572;2022-11-11T05:29:46;7.35;;;3.83;;
45887;SDS011;31595;51.418;7.572;2022-11-11T05:32:17;4.10;;;2.65;;
45887;SDS011;31595;51.418;7.572;2022-11-11T05:34:45;5.45;;;2.90;;
45887;SDS011;31595;51.418;7.572;2022-11-11T05:37:13;4.45;;;2.90;;
45887;SDS011;31595;51.418;7.572;2022-11-11T05:39:42;5.90;;;2.92;;
45887;SDS011;31595;51.418;7.572;2022-11-11T05:42:10;4.90;;;3.13;;
45887;SDS011;31595;51.418;7.572;2022-11-11T05:44:37;3.88;;;2.53;;
45887;SDS011;31595;51.418;7.572;2022-11-11T05:47:04;4.63;;;2.60;;
45887;SDS011;31595;51.418;7.572;2022-11-11T05:49:32;5.53;;;3.42;;
45887;SDS011;31595;51.418;7.572;2022-11-11T05:51:59;5.10;;;2.65;;
45887;SDS011;31595;51.418;7.572;2022-11-11T05:54:26;6.10;;;2.67;;
45887;SDS011;31595;51.418;7.572;2022-11-11T05:56:55;5.10;;;3.20;;
45887;SDS011;31595;51.418;7.572;2022-11-11T05:59:23;5.25;;;3.28;;
45887;SDS011;31595;51.418;7.572;2022-11-11T06:01:50;4.60;;;3.17;;
45887;SDS011;31595;51.418;7.572;2022-11-11T06:04:18;5.95;;;2.63;;
45887;SDS011;31595;51.418;7.572;2022-11-11T06:06:45;4.55;;;3.25;;
45887;SDS011;31595;51.418;7.572;2022-11-11T06:09:12;3.97;;;2.88;;
45887;SDS011;31595;51.418;7.572;2022-11-11T06:11:40;4.47;;;2.80;;
45887;SDS011;31595;51.418;7.572;2022-11-11T06:14:09;4.57;;;2.88;;
45887;SDS011;31595;51.418;7.572;2022-11-11T06:16:36;6.78;;;3.22;;
45887;SDS011;31595;51.418;7.572;2022-11-11T06:19:03;3.47;;;2.72;;
45887;SDS011;31595;51.418;7.572;2022-11-11T06:21:31;5.70;;;2.90;;
45887;SDS011;31595;51.418;7.572;2022-11-11T06:24:19;4.72;;;3.05;;
45887;SDS011;31595;51.418;7.572;2022-11-11T06:26:46;5.07;;;2.55;;
45887;SDS011;31595;51.418;7.572;2022-11-11T06:29:14;5.47;;;2.60;;
45887;SDS011;31595;51.418;7.572;2022-11-11T06:31:41;5.00;;;2.80;;
45887;SDS011;31595;51.418;7.572;2022-11-11T06:34:10;3.67;;;2.22;;
45887;SDS011;31595;51.418;7.572;2022-11-11T06:36:37;3.58;;;2.75;;
45887;SDS011;31595;51.418;7.572;2022-11-11T06:39:05;4.75;;;2.72;;
45887;SDS011;31595;51.418;7.572;2022-11-11T06:41:33;4.53;;;2.70;;
45887;SDS011;31595;51.418;7.572;2022-11-11T06:44:00;3.65;;;2.55;;
45887;SDS011;31595;51.418;7.572;2022-11-11T06:46:29;5.65;;;2.65;;
45887;SDS011;31595;51.418;7.572;2022-11-11T06:48:57;3.77;;;2.40;;
45887;SDS011;31595;51.418;7.572;2022-11-11T06:51:24;6.15;;;3.00;;
45887;SDS011;31595;51.418;7.572;2022-11-11T06:53:51;4.47;;;2.95;;
45887;SDS011;31595;51.418;7.572;2022-11-11T06:56:19;5.22;;;2.67;;
45887;SDS011;31595;51.418;7.572;2022-11-11T06:58:46;5.65;;;2.55;;
45887;SDS011;31595;51.418;7.572;2022-11-11T07:01:13;8.13;;;2.63;;
45887;SDS011;31595;51.418;7.572;2022-11-11T07:03:42;4.32;;;2.78;;
45887;SDS011;31595;51.418;7.572;2022-11-11T07:06:12;4.40;;;2.40;;
45887;SDS011;31595;51.418;7.572;2022-11-11T07:08:40;4.95;;;2.45;;
45887;SDS011;31595;51.418;7.572;2022-11-11T07:11:09;5.30;;;2.40;;
45887;SDS011;31595;51.418;7.572;2022-11-11T07:13:37;3.70;;;2.28;;
45887;SDS011;31595;51.418;7.572;2022-11-11T07:16:04;4.82;;;2.72;;
45887;SDS011;31595;51.418;7.572;2022-11-11T07:18:32;3.25;;;2.17;;
45887;SDS011;31595;51.418;7.572;2022-11-11T07:21:01;5.63;;;2.90;;
45887;SDS011;31595;51.418;7.572;2022-11-11T07:23:28;4.85;;;2.55;;
45887;SDS011;31595;51.418;7.572;2022-11-11T07:25:55;5.03;;;2.70;;
45887;SDS011;31595;51.418;7.572;2022-11-11T07:28:23;6.90;;;2.80;;
45887;SDS011;31595;51.418;7.572;2022-11-11T07:30:50;4.57;;;2.90;;
45887;SDS011;31595;51.418;7.572;2022-11-11T07:33:18;4.78;;;2.85;;
45887;SDS011;31595;51.418;7.572;2022-11-11T07:35:45;4.88;;;2.88;;
45887;SDS011;31595;51.418;7.572;2022-11-11T07:38:15;3.88;;;2.40;;
45887;SDS011;31595;51.418;7.572;2022-11-11T07:40:42;3.93;;;2.40;;
45887;SDS011;31595;51.418;7.572;2022-11-11T07:43:10;4.00;;;2.30;;
45887;SDS011;31595;51.418;7.572;2022-11-11T07:45:37;3.65;;;2.20;;
45887;SDS011;31595;51.418;7.572;2022-11-11T07:48:05;3.13;;;2.17;;
45887;SDS011;31595;51.418;7.572;2022-11-11T07:50:32;3.22;;;2.35;;
45887;SDS011;31595;51.418;7.572;2022-11-11T07:53:00;4.68;;;2.70;;
45887;SDS011;31595;51.418;7.572;2022-11-11T07:55:29;5.97;;;2.28;;
45887;SDS011;31595;51.418;7.572;2022-11-11T07:57:57;4.60;;;2.63;;
45887;SDS011;31595;51.418;7.572;2022-11-11T08:00:26;3.63;;;2.22;;
45887;SDS011;31595;51.418;7.572;2022-11-11T08:05:22;3.22;;;2.15;;
45887;SDS011;31595;51.418;7.572;2022-11-11T08:07:50;5.43;;;2.17;;
45887;SDS011;31595;51.418;7.572;2022-11-11T08:10:17;6.30;;;2.33;;
45887;SDS011;31595;51.418;7.572;2022-11-11T08:12:50;4.75;;;2.20;;
45887;SDS011;31595;51.418;7.572;2022-11-11T08:15:37;3.10;;;1.98;;
45887;SDS011;31595;51.418;7.572;2022-11-11T08:18:04;4.97;;;2.05;;
45887;SDS011;31595;51.418;7.572;2022-11-11T08:20:32;3.42;;;2.15;;
45887;SDS011;31595;51.418;7.572;2022-11-11T08:23:00;4.05;;;2.13;;
45887;SDS011;31595;51.418;7.572;2022-11-11T08:25:30;2.78;;;1.73;;
45887;SDS011;31595;51.418;7.572;2022-11-11T08:27:59;3.92;;;2.00;;
45887;SDS011;31595;51.418;7.572;2022-11-11T08:30:30;3.58;;;2.17;;
45887;SDS011;31595;51.418;7.572;2022-11-11T08:32:57;2.55;;;1.77;;
45887;SDS011;31595;51.418;7.572;2022-11-11T08:35:25;4.03;;;1.83;;
45887;SDS011;31595;51.418;7.572;2022-11-11T08:37:53;3.15;;;2.10;;
45887;SDS011;31595;51.418;7.572;2022-11-11T08:40:21;3.65;;;1.80;;
45887;SDS011;31595;51.418;7.572;2022-11-11T08:42:48;2.63;;;1.50;;
45887;SDS011;31595;51.418;7.572;2022-11-11T08:45:18;2.55;;;1.70;;
45887;SDS011;31595;51.418;7.572;2022-11-11T08:47:47;2.83;;;1.70;;
45887;SDS011;31595;51.418;7.572;2022-11-11T08:50:14;3.30;;;1.70;;
45887;SDS011;31595;51.418;7.572;2022-11-11T08:52:44;3.08;;;1.48;;
45887;SDS011;31595;51.418;7.572;2022-11-11T08:55:12;2.60;;;1.83;;
45887;SDS011;31595;51.418;7.572;2022-11-11T08:57:39;2.92;;;1.50;;
45887;SDS011;31595;51.418;7.572;2022-11-11T09:00:07;3.58;;;1.58;;
45887;SDS011;31595;51.418;7.572;2022-11-11T09:02:37;3.60;;;1.50;;
45887;SDS011;31595;51.418;7.572;2022-11-11T09:05:05;3.17;;;1.50;;
45887;SDS011;31595;51.418;7.572;2022-11-11T09:07:32;2.10;;;1.30;;
45887;SDS011;31595;51.418;7.572;2022-11-11T09:10:00;3.50;;;1.75;;
45887;SDS011;31595;51.418;7.572;2022-11-11T09:12:27;2.58;;;1.60;;
45887;SDS011;31595;51.418;7.572;2022-11-11T09:14:55;3.58;;;1.70;;
45887;SDS011;31595;51.418;7.572;2022-11-11T09:17:23;3.60;;;1.83;;
45887;SDS011;31595;51.418;7.572;2022-11-11T09:19:51;2.10;;;1.40;;
45887;SDS011;31595;51.418;7.572;2022-11-11T09:22:20;1.70;;;1.13;;
45887;SDS011;31595;51.418;7.572;2022-11-11T09:24:47;3.63;;;1.57;;
45887;SDS011;31595;51.418;7.572;2022-11-11T09:27:14;2.30;;;1.23;;
45887;SDS011;31595;51.418;7.572;2022-11-11T09:29:42;2.80;;;1.30;;
45887;SDS011;31595;51.418;7.572;2022-11-11T09:32:09;1.80;;;1.20;;
45887;SDS011;31595;51.418;7.572;2022-11-11T09:34:37;3.35;;;1.30;;
45887;SDS011;31595;51.418;7.572;2022-11-11T09:37:06;1.90;;;1.20;;
45887;SDS011;31595;51.418;7.572;2022-11-11T09:39:34;3.13;;;1.23;;
45887;SDS011;31595;51.418;7.572;2022-11-11T09:42:02;2.28;;;1.17;;
45887;SDS011;31595;51.418;7.572;2022-11-11T09:44:41;1.95;;;1.40;;
45887;SDS011;31595;51.418;7.572;2022-11-11T09:47:25;2.35;;;1.40;;
45887;SDS011;31595;51.418;7.572;2022-11-11T09:50:01;2.70;;;1.50;;
45887;SDS011;31595;51.418;7.572;2022-11-11T09:52:33;2.78;;;1.60;;
45887;SDS011;31595;51.418;7.572;2022-11-11T09:55:04;2.15;;;1.35;;
45887;SDS011;31595;51.418;7.572;2022-11-11T09:57:39;2.10;;;1.30;;
45887;SDS011;31595;51.418;7.572;2022-11-11T10:00:14;2.40;;;1.27;;
45887;SDS011;31595;51.418;7.572;2022-11-11T10:02:45;2.05;;;1.20;;
45887;SDS011;31595;51.418;7.572;2022-11-11T10:05:16;2.65;;;1.25;;
45887;SDS011;31595;51.418;7.572;2022-11-11T10:07:50;1.92;;;1.30;;
45887;SDS011;31595;51.418;7.572;2022-11-11T10:10:25;4.10;;;1.30;;
45887;SDS011;31595;51.418;7.572;2022-11-11T10:12:56;3.15;;;1.52;;
45887;SDS011;31595;51.418;7.572;2022-11-11T10:15:25;1.95;;;1.20;;
45887;SDS011;31595;51.418;7.572;2022-11-11T10:18:01;2.60;;;1.20;;
45887;SDS011;31595;51.418;7.572;2022-11-11T10:20:41;2.35;;;1.23;;
45887;SDS011;31595;51.418;7.572;2022-11-11T10:23:20;1.98;;;1.27;;
45887;SDS011;31595;51.418;7.572;2022-11-11T10:25:55;2.20;;;1.35;;
45887;SDS011;31595;51.418;7.572;2022-11-11T10:28:26;2.03;;;1.20;;
45887;SDS011;31595;51.418;7.572;2022-11-11T10:30:58;3.30;;;1.23;;
45887;SDS011;31595;51.418;7.572;2022-11-11T10:33:29;3.42;;;1.60;;
45887;SDS011;31595;51.418;7.572;2022-11-11T10:36:04;1.67;;;1.23;;
45887;SDS011;31595;51.418;7.572;2022-11-11T10:38:43;2.35;;;1.30;;
45887;SDS011;31595;51.418;7.572;2022-11-11T10:41:17;1.75;;;1.00;;
45887;SDS011;31595;51.418;7.572;2022-11-11T10:43:49;2.67;;;0.98;;
45887;SDS011;31595;51.418;7.572;2022-11-11T10:46:17;2.38;;;1.10;;
45887;SDS011;31595;51.418;7.572;2022-11-11T10:48:50;4.15;;;1.10;;
45887;SDS011;31595;51.418;7.572;2022-11-11T10:51:21;9.07;;;1.48;;
45887;SDS011;31595;51.418;7.572;2022-11-11T10:53:59;2.20;;;1.10;;
45887;SDS011;31595;51.418;7.572;2022-11-11T10:56:32;2.65;;;1.13;;
45887;SDS011;31595;51.418;7.572;2022-11-11T10:59:08;2.97;;;1.00;;
45887;SDS011;31595;51.418;7.572;2022-11-11T11:01:42;2.28;;;1.13;;
45887;SDS011;31595;51.418;7.572;2022-11-11T11:04:19;2.97;;;1.20;;
45887;SDS011;31595;51.418;7.572;2022-11-11T11:06:52;2.15;;;1.00;;
45887;SDS011;31595;51.418;7.572;2022-11-11T11:09:22;1.98;;;1.15;;
45887;SDS011;31595;51.418;7.572;2022-11-11T11:11:57;1.50;;;1.08;;
45887;SDS011;31595;51.418;7.572;2022-11-11T11:14:28;4.28;;;1.55;;
45887;SDS011;31595;51.418;7.572;2022-11-11T11:17:04;2.97;;;1.30;;
45887;SDS011;31595;51.418;7.572;2022-11-11T11:19:36;2.38;;;1.20;;
45887;SDS011;31595;51.418;7.572;2022-11-11T11:22:04;2.03;;;1.00;;
45887;SDS011;31595;51.418;7.572;2022-11-11T11:24:34;2.42;;;1.10;;
45887;SDS011;31595;51.418;7.572;2022-11-11T11:27:03;2.60;;;1.30;;
45887;SDS011;31595;51.418;7.572;2022-11-11T11:29:33;2.28;;;1.10;;
45887;SDS011;31595;51.418;7.572;2022-11-11T11:32:12;2.08;;;1.30;;
45887;SDS011;31595;51.418;7.572;2022-11-11T11:34:42;2.40;;;1.15;;
45887;SDS011;31595;51.418;7.572;2022-11-11T11:37:14;3.47;;;1.27;;
45887;SDS011;31595;51.418;7.572;2022-11-11T11:39:43;3.15;;;1.20;;
45887;SDS011;31595;51.418;7.572;2022-11-11T11:42:28;2.50;;;1.30;;
45887;SDS011;31595;51.418;7.572;2022-11-11T11:44:56;2.70;;;1.60;;
45887;SDS011;31595;51.418;7.572;2022-11-11T11:47:42;2.50;;;1.55;;
45887;SDS011;31595;51.418;7.572;2022-11-11T11:50:32;2.05;;;1.30;;
45887;SDS011;31595;51.418;7.572;2022-11-11T11:53:10;2.00;;;1.73;;
45887;SDS011;31595;51.418;7.572;2022-11-11T11:55:57;2.70;;;2.20;;
45887;SDS011;31595;51.418;7.572;2022-11-11T11:58:33;3.97;;;2.58;;
45887;SDS011;31595;51.418;7.572;2022-11-11T12:01:09;2.80;;;2.60;;
45887;SDS011;31595;51.418;7.572;2022-11-11T12:03:51;3.25;;;2.97;;
45887;SDS011;31595;51.418;7.572;2022-11-11T12:06:34;4.07;;;3.67;;
45887;SDS011;31595;51.418;7.572;2022-11-11T12:09:12;3.30;;;3.00;;
45887;SDS011;31595;51.418;7.572;2022-11-11T12:11:50;3.17;;;2.97;;
45887;SDS011;31595;51.418;7.572;2022-11-11T12:14:28;3.83;;;3.53;;
45887;SDS011;31595;51.418;7.572;2022-11-11T12:17:07;2.28;;;2.08;;
45887;SDS011;31595;51.418;7.572;2022-11-11T12:19:54;3.70;;;3.50;;
45887;SDS011;31595;51.418;7.572;2022-11-11T12:22:37;4.60;;;4.30;;
45887;SDS011;31595;51.418;7.572;2022-11-11T12:25:16;6.05;;;5.65;;
45887;SDS011;31595;51.418;7.572;2022-11-11T12:27:53;6.38;;;5.97;;
45887;SDS011;31595;51.418;7.572;2022-11-11T12:30:28;6.82;;;6.30;;
45887;SDS011;31595;51.418;7.572;2022-11-11T12:33:10;5.00;;;4.70;;
45887;SDS011;31595;51.418;7.572;2022-11-11T12:35:56;4.90;;;4.55;;
45887;SDS011;31595;51.418;7.572;2022-11-11T12:38:37;5.32;;;4.93;;
45887;SDS011;31595;51.418;7.572;2022-11-11T12:41:19;4.38;;;4.10;;
45887;SDS011;31595;51.418;7.572;2022-11-11T12:43:55;5.80;;;5.50;;
45887;SDS011;31595;51.418;7.572;2022-11-11T12:46:32;5.38;;;4.97;;
45887;SDS011;31595;51.418;7.572;2022-11-11T12:49:14;5.68;;;5.38;;
45887;SDS011;31595;51.418;7.572;2022-11-11T12:51:55;5.90;;;5.43;;
45887;SDS011;31595;51.418;7.572;2022-11-11T12:54:33;5.30;;;4.80;;
45887;SDS011;31595;51.418;7.572;2022-11-11T12:57:11;7.50;;;7.10;;
45887;SDS011;31595;51.418;7.572;2022-11-11T13:02:34;5.10;;;4.80;;
45887;SDS011;31595;51.418;7.572;2022-11-11T13:05:12;6.15;;;5.75;;
45887;SDS011;31595;51.418;7.572;2022-11-11T13:07:53;6.00;;;5.70;;
45887;SDS011;31595;51.418;7.572;2022-11-11T13:10:32;5.90;;;5.50;;
45887;SDS011;31595;51.418;7.572;2022-11-11T13:13:12;8.05;;;7.57;;
45887;SDS011;31595;51.418;7.572;2022-11-11T13:15:56;8.18;;;7.78;;
45887;SDS011;31595;51.418;7.572;2022-11-11T13:18:25;23.88;;;22.88;;
45887;SDS011;31595;51.418;7.572;2022-11-11T13:20:58;15.02;;;14.32;;
45887;SDS011;31595;51.418;7.572;2022-11-11T13:23:29;14.02;;;13.43;;
45887;SDS011;31595;51.418;7.572;2022-11-11T13:25:57;20.05;;;19.23;;
45887;SDS011;31595;51.418;7.572;2022-11-11T13:28:32;71.10;;;68.00;;
45887;SDS011;31595;51.418;7.572;2022-11-11T13:31:09;12.82;;;12.30;;
45887;SDS011;31595;51.418;7.572;2022-11-11T13:33:42;16.73;;;16.02;;
45887;SDS011;31595;51.418;7.572;2022-11-11T13:36:12;14.68;;;14.07;;
45887;SDS011;31595;51.418;7.572;2022-11-11T13:38:44;31.90;;;30.67;;
45887;SDS011;31595;51.418;7.572;2022-11-11T13:41:20;34.70;;;33.15;;
45887;SDS011;31595;51.418;7.572;2022-11-11T13:43:51;16.30;;;15.60;;
45887;SDS011;31595;51.418;7.572;2022-11-11T13:46:32;15.07;;;14.48;;
45887;SDS011;31595;51.418;7.572;2022-11-11T13:49:04;14.65;;;14.05;;
45887;SDS011;31595;51.418;7.572;2022-11-11T13:51:36;12.93;;;12.32;;
45887;SDS011;31595;51.418;7.572;2022-11-11T13:54:06;9.88;;;9.38;;
45887;SDS011;31595;51.418;7.572;2022-11-11T13:56:49;10.30;;;9.80;;
45887;SDS011;31595;51.418;7.572;2022-11-11T13:59:19;12.80;;;12.27;;
45887;SDS011;31595;51.418;7.572;2022-11-11T14:02:11;9.85;;;9.40;;
45887;SDS011;31595;51.418;7.572;2022-11-11T14:07:49;7.55;;;7.25;;
45887;SDS011;31595;51.418;7.572;2022-11-11T14:16:05;3.55;;;1.33;;
45887;SDS011;31595;51.418;7.572;2022-11-11T14:18:42;3.25;;;1.50;;
45887;SDS011;31595;51.418;7.572;2022-11-11T14:21:12;3.28;;;1.40;;
45887;SDS011;31595;51.418;7.572;2022-11-11T14:24:21;1.85;;;1.20;;
45887;SDS011;31595;51.418;7.572;2022-11-11T14:27:00;2.97;;;1.45;;
45887;SDS011;31595;51.418;7.572;2022-11-11T14:29:32;3.30;;;1.45;;
45887;SDS011;31595;51.418;7.572;2022-11-11T14:32:29;2.95;;;1.15;;
45887;SDS011;31595;51.418;7.572;2022-11-11T14:35:22;3.58;;;1.05;;
45887;SDS011;31595;51.418;7.572;2022-11-11T14:38:10;2.85;;;1.10;;
45887;SDS011;31595;51.418;7.572;2022-11-11T14:40:47;3.00;;;1.17;;
45887;SDS011;31595;51.418;7.572;2022-11-11T14:43:33;3.53;;;1.75;;
45887;SDS011;31595;51.418;7.572;2022-11-11T14:46:04;4.77;;;1.30;;
45887;SDS011;31595;51.418;7.572;2022-11-11T14:48:51;3.30;;;1.30;;
45887;SDS011;31595;51.418;7.572;2022-11-11T14:54:17;3.45;;;1.15;;
45887;SDS011;31595;51.418;7.572;2022-11-11T14:57:02;2.78;;;1.42;;
45887;SDS011;31595;51.418;7.572;2022-11-11T14:59:33;3.40;;;1.48;;
45887;SDS011;31595;51.418;7.572;2022-11-11T15:02:02;3.35;;;1.10;;
45887;SDS011;31595;51.418;7.572;2022-11-11T15:04:35;2.78;;;1.48;;
45887;SDS011;31595;51.418;7.572;2022-11-11T15:07:05;3.92;;;1.35;;
45887;SDS011;31595;51.418;7.572;2022-11-11T15:12:53;4.05;;;1.73;;
45887;SDS011;31595;51.418;7.572;2022-11-11T15:15:48;4.38;;;2.03;;
45887;SDS011;31595;51.418;7.572;2022-11-11T15:18:30;3.90;;;1.77;;
45887;SDS011;31595;51.418;7.572;2022-11-11T15:21:12;3.90;;;1.70;;
45887;SDS011;31595;51.418;7.572;2022-11-11T15:23:48;5.07;;;1.60;;
45887;SDS011;31595;51.418;7.572;2022-11-11T15:26:24;5.60;;;2.25;;
45887;SDS011;31595;51.418;7.572;2022-11-11T15:29:05;3.85;;;1.52;;
45887;SDS011;31595;51.418;7.572;2022-11-11T15:31:49;4.43;;;1.67;;
45887;SDS011;31595;51.418;7.572;2022-11-11T15:34:25;3.78;;;1.63;;
45887;SDS011;31595;51.418;7.572;2022-11-11T15:37:00;1.98;;;1.27;;
45887;SDS011;31595;51.418;7.572;2022-11-11T15:39:35;4.05;;;1.80;;
45887;SDS011;31595;51.418;7.572;2022-11-11T15:42:09;2.17;;;1.35;;
45887;SDS011;31595;51.418;7.572;2022-11-11T15:44:40;3.95;;;1.55;;